createdAt,value
2017-10-12T00:00:43.182Z,15.62
2017-10-12T00:01:52.020Z,15.68
2017-10-12T00:03:00.854Z,15.6
2017-10-12T00:04:09.690Z,15.56
2017-10-12T00:05:18.527Z,15.6
2017-10-12T00:06:27.363Z,15.62
2017-10-12T00:07:36.197Z,15.59
2017-10-12T00:08:45.032Z,15.65
2017-10-12T00:09:53.864Z,15.62
2017-10-12T00:11:02.699Z,15.65
2017-10-12T00:12:11.529Z,15.62
2017-10-12T00:13:20.363Z,15.62
2017-10-12T00:14:29.199Z,15.6
2017-10-12T00:15:38.035Z,15.59
2017-10-12T00:16:46.869Z,15.53
2017-10-12T00:17:55.706Z,15.6
2017-10-12T00:19:04.547Z,15.6
2017-10-12T00:20:13.376Z,15.59
2017-10-12T00:21:22.211Z,15.62
2017-10-12T00:22:31.042Z,15.62
2017-10-12T00:23:39.879Z,15.56
2017-10-12T00:24:48.713Z,15.53
2017-10-12T00:25:57.549Z,15.6
2017-10-12T00:27:06.380Z,15.53
2017-10-12T00:28:15.213Z,15.49
2017-10-12T00:29:24.050Z,15.51
2017-10-12T00:30:32.891Z,15.6
2017-10-12T00:31:41.730Z,15.54
2017-10-12T00:32:50.562Z,15.6
2017-10-12T00:33:59.395Z,15.56
2017-10-12T00:35:08.225Z,15.53
2017-10-12T00:36:17.062Z,15.53
2017-10-12T00:37:25.895Z,15.56
2017-10-12T00:38:34.735Z,15.54
2017-10-12T00:39:43.566Z,15.51
2017-10-12T00:40:52.406Z,15.59
2017-10-12T00:42:01.243Z,15.54
2017-10-12T00:43:10.076Z,15.5
2017-10-12T00:44:18.914Z,15.57
2017-10-12T00:45:27.747Z,15.59
2017-10-12T00:46:36.578Z,15.62
2017-10-12T00:47:45.413Z,15.59
2017-10-12T00:48:54.247Z,15.54
2017-10-12T00:50:03.083Z,15.49
2017-10-12T00:51:11.922Z,15.56
2017-10-12T00:52:20.761Z,15.54
2017-10-12T00:53:29.591Z,15.56
2017-10-12T00:54:38.426Z,15.51
2017-10-12T00:55:47.263Z,15.44
2017-10-12T00:56:56.093Z,15.53
2017-10-12T00:58:04.931Z,15.46
2017-10-12T00:59:13.766Z,15.46
2017-10-12T01:00:22.605Z,15.47
2017-10-12T01:01:31.443Z,15.51
2017-10-12T01:02:40.283Z,15.47
2017-10-12T01:03:49.112Z,15.44
2017-10-12T01:04:57.949Z,15.53
2017-10-12T01:06:06.786Z,15.56
2017-10-12T01:07:15.616Z,15.54
2017-10-12T01:08:24.456Z,15.5
2017-10-12T01:09:33.291Z,15.56
2017-10-12T01:10:42.124Z,15.54
2017-10-12T01:11:50.957Z,15.51
2017-10-12T01:12:59.791Z,15.57
2017-10-12T01:14:08.628Z,15.62
2017-10-12T01:15:17.462Z,15.57
2017-10-12T01:16:26.628Z,15.57
2017-10-12T01:17:35.465Z,15.6
2017-10-12T01:18:44.635Z,15.56
2017-10-12T01:19:53.473Z,15.56
2017-10-12T01:21:02.307Z,15.57
2017-10-12T01:22:11.143Z,15.56
2017-10-12T01:23:19.986Z,15.6
2017-10-12T01:24:28.824Z,15.56
2017-10-12T01:25:37.663Z,15.56
2017-10-12T01:26:46.500Z,15.53
2017-10-12T01:27:55.337Z,15.51
2017-10-12T01:29:04.166Z,15.53
2017-10-12T01:30:12.999Z,15.47
2017-10-12T01:31:21.834Z,15.5
2017-10-12T01:32:30.672Z,15.49
2017-10-12T01:33:39.511Z,15.47
2017-10-12T01:34:48.339Z,15.49
2017-10-12T01:35:57.173Z,15.49
2017-10-12T01:37:06.008Z,15.47
2017-10-12T01:38:14.846Z,15.41
2017-10-12T01:39:23.681Z,15.34
2017-10-12T01:40:32.521Z,15.34
2017-10-12T01:41:41.353Z,15.44
2017-10-12T01:42:50.181Z,15.38
2017-10-12T01:43:59.355Z,15.36
2017-10-12T01:45:08.198Z,15.39
2017-10-12T01:46:17.031Z,15.29
2017-10-12T01:47:25.868Z,15.25
2017-10-12T01:48:34.699Z,15.32
2017-10-12T01:49:43.869Z,15.35
2017-10-12T01:50:52.707Z,15.35
2017-10-12T01:52:01.542Z,15.28
2017-10-12T01:53:10.382Z,15.25
2017-10-12T01:54:19.215Z,15.21
2017-10-12T01:55:28.045Z,15.23
2017-10-12T01:56:36.885Z,15.27
2017-10-12T01:57:46.063Z,15.27
2017-10-12T01:58:54.896Z,15.2
2017-10-12T02:00:03.729Z,15.2
2017-10-12T02:01:12.565Z,15.25
2017-10-12T02:02:21.400Z,15.2
2017-10-12T02:03:30.236Z,15.23
2017-10-12T02:04:39.073Z,15.21
2017-10-12T02:05:47.910Z,15.2
2017-10-12T02:06:56.741Z,15.16
2017-10-12T02:08:05.576Z,15.2
2017-10-12T02:09:14.410Z,15.16
2017-10-12T02:10:23.245Z,15.23
2017-10-12T02:11:32.082Z,15.19
2017-10-12T02:12:41.258Z,15.19
2017-10-12T02:13:50.093Z,15.1
2017-10-12T02:14:58.928Z,15.13
2017-10-12T02:16:08.101Z,15.03
2017-10-12T02:17:16.932Z,15.16
2017-10-12T02:18:25.763Z,15.17
2017-10-12T02:19:34.603Z,15.07
2017-10-12T02:20:43.438Z,14.99
2017-10-12T02:21:52.605Z,15.07
2017-10-12T02:23:01.438Z,15.02
2017-10-12T02:24:10.271Z,15.06
2017-10-12T02:25:19.441Z,15.09
2017-10-12T02:26:28.285Z,15.06
2017-10-12T02:27:37.113Z,15.07
2017-10-12T02:28:45.944Z,15.02
2017-10-12T02:29:54.784Z,15.01
2017-10-12T02:31:03.606Z,15.07
2017-10-12T02:32:12.444Z,15.02
2017-10-12T02:33:21.616Z,14.99
2017-10-12T02:34:30.451Z,15.02
2017-10-12T02:35:39.281Z,15.01
2017-10-12T02:36:48.114Z,15.03
2017-10-12T02:37:56.950Z,15.01
2017-10-12T02:39:05.789Z,14.92
2017-10-12T02:40:14.631Z,14.96
2017-10-12T02:41:23.460Z,14.98
2017-10-12T02:42:32.293Z,15.01
2017-10-12T02:43:41.130Z,15.01
2017-10-12T02:44:49.965Z,14.88
2017-10-12T02:45:59.137Z,15.02
2017-10-12T02:47:07.992Z,15.02
2017-10-12T02:48:16.797Z,14.94
2017-10-12T02:49:25.630Z,14.98
2017-10-12T02:50:34.470Z,14.98
2017-10-12T02:51:43.305Z,14.96
2017-10-12T02:52:52.139Z,14.94
2017-10-12T02:54:01.306Z,14.94
2017-10-12T02:55:10.138Z,14.96
2017-10-12T02:56:18.975Z,14.95
2017-10-12T02:57:27.811Z,14.92
2017-10-12T02:58:36.646Z,14.96
2017-10-12T02:59:45.474Z,14.96
2017-10-12T03:00:54.313Z,14.81
2017-10-12T03:02:03.149Z,14.78
2017-10-12T03:03:11.983Z,14.89
2017-10-12T03:04:20.820Z,14.95
2017-10-12T03:05:29.654Z,14.92
2017-10-12T03:06:38.488Z,14.92
2017-10-12T03:07:47.323Z,14.94
2017-10-12T03:08:56.160Z,14.92
2017-10-12T03:10:05.001Z,14.98
2017-10-12T03:11:13.827Z,14.96
2017-10-12T03:12:22.662Z,15.02
2017-10-12T03:13:31.497Z,14.95
2017-10-12T03:14:40.333Z,14.94
2017-10-12T03:15:49.161Z,14.98
2017-10-12T03:16:57.990Z,14.95
2017-10-12T03:18:06.823Z,14.98
2017-10-12T03:19:15.665Z,15.01
2017-10-12T03:20:24.500Z,15.01
2017-10-12T03:21:33.333Z,14.96
2017-10-12T03:22:42.166Z,14.92
2017-10-12T03:23:50.994Z,14.94
2017-10-12T03:25:00.175Z,14.89
2017-10-12T03:26:09.009Z,14.94
2017-10-12T03:27:18.178Z,14.81
2017-10-12T03:28:27.349Z,14.95
2017-10-12T03:29:36.184Z,14.81
2017-10-12T03:30:45.018Z,14.94
2017-10-12T03:31:54.228Z,14.98
2017-10-12T03:33:03.065Z,14.98
2017-10-12T03:34:11.897Z,14.92
2017-10-12T03:35:20.734Z,15.02
2017-10-12T03:36:29.571Z,15.02
2017-10-12T03:37:38.405Z,14.98
2017-10-12T03:38:47.238Z,15.02
2017-10-12T03:39:56.076Z,14.99
2017-10-12T03:41:04.912Z,15.01
2017-10-12T03:42:13.743Z,15.02
2017-10-12T03:43:22.579Z,15.02
2017-10-12T03:44:31.414Z,15.06
2017-10-12T03:45:40.249Z,15.06
2017-10-12T03:46:49.084Z,14.96
2017-10-12T03:47:58.256Z,14.99
2017-10-12T03:49:07.089Z,15.02
2017-10-12T03:50:15.922Z,15.01
2017-10-12T03:51:24.756Z,14.96
2017-10-12T03:52:33.590Z,15.01
2017-10-12T03:53:42.425Z,15.02
2017-10-12T03:54:51.259Z,14.99
2017-10-12T03:56:00.095Z,14.99
2017-10-12T03:57:08.941Z,15.02
2017-10-12T03:58:17.778Z,14.99
2017-10-12T03:59:26.614Z,14.96
2017-10-12T04:00:35.780Z,14.95
2017-10-12T04:01:44.613Z,15.02
2017-10-12T04:02:53.449Z,15.01
2017-10-12T04:04:02.284Z,15.02
2017-10-12T04:05:11.120Z,15.06
2017-10-12T04:06:19.955Z,14.98
2017-10-12T04:07:28.788Z,14.99
2017-10-12T04:08:37.621Z,15.02
2017-10-12T04:09:46.796Z,15.02
2017-10-12T04:10:55.628Z,15.02
2017-10-12T04:12:04.463Z,14.99
2017-10-12T04:13:13.300Z,15.01
2017-10-12T04:14:22.131Z,15.01
2017-10-12T04:15:30.973Z,15.01
2017-10-12T04:16:39.810Z,15.02
2017-10-12T04:17:48.649Z,14.96
2017-10-12T04:18:57.477Z,15.03
2017-10-12T04:20:06.312Z,14.99
2017-10-12T04:21:15.143Z,15.02
2017-10-12T04:22:23.981Z,15.13
2017-10-12T04:23:32.821Z,15.16
2017-10-12T04:24:41.656Z,15.07
2017-10-12T04:25:50.487Z,15.13
2017-10-12T04:26:59.657Z,15.1
2017-10-12T04:28:08.490Z,15.16
2017-10-12T04:29:17.330Z,15.09
2017-10-12T04:30:26.508Z,15.17
2017-10-12T04:31:35.343Z,15.17
2017-10-12T04:32:44.177Z,15.1
2017-10-12T04:33:53.005Z,15.16
2017-10-12T04:35:01.847Z,15.1
2017-10-12T04:36:10.679Z,15.11
2017-10-12T04:37:19.519Z,15.02
2017-10-12T04:38:28.347Z,15.11
2017-10-12T04:39:37.180Z,15.1
2017-10-12T04:40:46.019Z,15.02
2017-10-12T04:41:54.855Z,15.01
2017-10-12T04:43:03.692Z,15.03
2017-10-12T04:44:12.524Z,15.02
2017-10-12T04:45:21.358Z,15.02
2017-10-12T04:46:30.198Z,15.01
2017-10-12T04:47:39.025Z,14.94
2017-10-12T04:48:47.862Z,15.06
2017-10-12T04:49:56.700Z,14.98
2017-10-12T04:51:05.536Z,14.99
2017-10-12T04:52:14.373Z,14.95
2017-10-12T04:53:23.210Z,14.95
2017-10-12T04:54:32.043Z,14.94
2017-10-12T04:55:40.874Z,14.81
2017-10-12T04:56:49.711Z,14.88
2017-10-12T04:57:58.544Z,14.81
2017-10-12T04:59:07.383Z,14.78
2017-10-12T05:00:16.221Z,14.84
2017-10-12T05:01:25.391Z,14.86
2017-10-12T05:02:34.225Z,14.86
2017-10-12T05:03:43.060Z,14.8
2017-10-12T05:04:51.898Z,14.81
2017-10-12T05:06:00.733Z,14.86
2017-10-12T05:07:09.567Z,14.88
2017-10-12T05:08:18.404Z,14.95
2017-10-12T05:09:27.235Z,14.98
2017-10-12T05:10:36.074Z,14.98
2017-10-12T05:11:45.243Z,14.99
2017-10-12T05:12:54.083Z,14.99
2017-10-12T05:14:02.920Z,14.98
2017-10-12T05:15:11.750Z,15.02
2017-10-12T05:16:20.582Z,15.01
2017-10-12T05:17:29.421Z,14.99
2017-10-12T05:18:38.263Z,15.01
2017-10-12T05:19:47.094Z,15.03
2017-10-12T05:20:55.929Z,15.02
2017-10-12T05:22:04.762Z,15.02
2017-10-12T05:23:13.593Z,15.02
2017-10-12T05:24:22.434Z,15.02
2017-10-12T05:25:31.271Z,14.95
2017-10-12T05:26:40.109Z,15.02
2017-10-12T05:27:48.940Z,15.03
2017-10-12T05:28:57.769Z,14.99
2017-10-12T05:30:06.608Z,15.07
2017-10-12T05:31:15.442Z,15.02
2017-10-12T05:32:24.281Z,14.99
2017-10-12T05:33:33.113Z,15.01
2017-10-12T05:34:41.951Z,15.11
2017-10-12T05:35:50.781Z,15.1
2017-10-12T05:36:59.620Z,15.09
2017-10-12T05:38:08.458Z,15.14
2017-10-12T05:39:17.291Z,15.11
2017-10-12T05:40:26.141Z,15.16
2017-10-12T05:41:34.954Z,15.19
2017-10-12T05:42:43.789Z,15.2
2017-10-12T05:43:52.625Z,15.16
2017-10-12T05:45:01.459Z,15.2
2017-10-12T05:46:10.296Z,15.27
2017-10-12T05:47:19.131Z,15.2
2017-10-12T05:48:27.965Z,15.2
2017-10-12T05:49:36.801Z,15.25
2017-10-12T05:50:45.640Z,15.19
2017-10-12T05:51:54.475Z,15.21
2017-10-12T05:53:03.308Z,15.16
2017-10-12T05:54:12.149Z,15.11
2017-10-12T05:55:20.982Z,15.14
2017-10-12T05:56:29.822Z,15.11
2017-10-12T05:57:38.651Z,15.14
2017-10-12T05:58:47.490Z,15.17
2017-10-12T05:59:56.329Z,15.17
2017-10-12T06:01:05.164Z,15.27
2017-10-12T06:02:13.998Z,15.16
2017-10-12T06:03:22.838Z,15.16
2017-10-12T06:04:31.670Z,15.27
2017-10-12T06:05:40.505Z,15.19
2017-10-12T06:06:49.344Z,15.19
2017-10-12T06:07:58.183Z,15.06
2017-10-12T06:09:07.012Z,15.06
2017-10-12T06:10:15.846Z,15.03
2017-10-12T06:11:24.683Z,14.99
2017-10-12T06:12:33.522Z,14.99
2017-10-12T06:13:42.362Z,15.06
2017-10-12T06:14:51.195Z,14.99
2017-10-12T06:16:00.028Z,15.06
2017-10-12T06:17:08.864Z,14.94
2017-10-12T06:18:17.698Z,14.99
2017-10-12T06:19:26.536Z,14.96
2017-10-12T06:20:35.376Z,14.95
2017-10-12T06:21:44.204Z,14.77
2017-10-12T06:22:53.041Z,14.81
2017-10-12T06:24:01.875Z,14.83
2017-10-12T06:25:10.713Z,14.8
2017-10-12T06:26:19.544Z,14.83
2017-10-12T06:27:28.375Z,14.84
2017-10-12T06:28:37.212Z,14.86
2017-10-12T06:29:46.048Z,14.81
2017-10-12T06:30:54.885Z,14.8
2017-10-12T06:32:03.718Z,14.72
2017-10-12T06:33:12.555Z,14.77
2017-10-12T06:34:21.387Z,14.81
2017-10-12T06:35:30.225Z,14.8
2017-10-12T06:36:39.061Z,14.89
2017-10-12T06:37:47.894Z,14.83
2017-10-12T06:38:56.732Z,14.81
2017-10-12T06:40:05.570Z,14.83
2017-10-12T06:41:14.416Z,14.86
2017-10-12T06:42:23.251Z,14.89
2017-10-12T06:43:32.083Z,14.88
2017-10-12T06:44:40.922Z,14.94
2017-10-12T06:45:49.757Z,14.94
2017-10-12T06:46:58.590Z,14.99
2017-10-12T06:48:07.759Z,14.98
2017-10-12T06:49:16.617Z,15.01
2017-10-12T06:50:25.795Z,15.01
2017-10-12T06:51:34.630Z,15.02
2017-10-12T06:52:43.465Z,15.01
2017-10-12T06:53:52.303Z,15.01
2017-10-12T06:55:01.134Z,14.99
2017-10-12T06:56:09.968Z,15.02
2017-10-12T06:57:18.802Z,14.96
2017-10-12T06:58:27.975Z,15.11
2017-10-12T06:59:36.805Z,15.03
2017-10-12T07:00:45.647Z,15.02
2017-10-12T07:01:54.479Z,15.02
2017-10-12T07:03:03.320Z,15.02
2017-10-12T07:04:12.152Z,15.09
2017-10-12T07:05:20.988Z,15.02
2017-10-12T07:06:29.821Z,15.03
2017-10-12T07:07:38.658Z,15.11
2017-10-12T07:08:47.498Z,15.07
2017-10-12T07:09:56.330Z,15.1
2017-10-12T07:11:05.169Z,15.16
2017-10-12T07:12:14.005Z,15.16
2017-10-12T07:13:22.837Z,15.2
2017-10-12T07:14:31.673Z,15.21
2017-10-12T07:15:40.505Z,15.28
2017-10-12T07:16:49.338Z,15.2
2017-10-12T07:17:58.169Z,15.27
2017-10-12T07:19:07.006Z,15.34
2017-10-12T07:20:15.839Z,15.28
2017-10-12T07:21:24.679Z,15.27
2017-10-12T07:22:33.872Z,15.17
2017-10-12T07:23:42.692Z,15.29
2017-10-12T07:24:51.529Z,15.29
2017-10-12T07:26:00.362Z,15.34
2017-10-12T07:27:09.199Z,15.34
2017-10-12T07:28:18.033Z,15.36
2017-10-12T07:29:26.866Z,15.39
2017-10-12T07:30:35.699Z,15.39
2017-10-12T07:31:44.536Z,15.35
2017-10-12T07:32:53.371Z,15.53
2017-10-12T07:34:02.215Z,15.53
2017-10-12T07:35:11.050Z,15.54
2017-10-12T07:36:19.889Z,15.62
2017-10-12T07:37:28.728Z,15.56
2017-10-12T07:38:37.564Z,15.59
2017-10-12T07:39:46.394Z,15.57
2017-10-12T07:40:55.228Z,15.6
2017-10-12T07:42:04.736Z,15.51
2017-10-12T07:43:13.904Z,15.59
2017-10-12T07:44:22.741Z,15.59
2017-10-12T07:45:31.572Z,15.56
2017-10-12T07:46:40.411Z,15.62
2017-10-12T07:47:49.241Z,15.64
2017-10-12T07:48:58.082Z,15.67
2017-10-12T07:50:06.916Z,15.68
2017-10-12T07:51:15.753Z,15.69
2017-10-12T07:52:24.585Z,15.65
2017-10-12T07:53:33.435Z,15.76
2017-10-12T07:54:42.632Z,15.71
2017-10-12T07:55:51.469Z,15.68
2017-10-12T07:57:00.305Z,15.67
2017-10-12T07:58:09.145Z,15.65
2017-10-12T07:59:17.974Z,15.82
2017-10-12T08:00:26.813Z,15.75
2017-10-12T08:01:35.644Z,15.69
2017-10-12T08:02:44.492Z,15.69
2017-10-12T08:03:53.324Z,15.62
2017-10-12T08:05:02.155Z,15.64
2017-10-12T08:06:10.987Z,15.57
2017-10-12T08:07:19.825Z,15.5
2017-10-12T08:08:28.657Z,15.57
2017-10-12T08:09:37.494Z,15.62
2017-10-12T08:10:46.333Z,15.59
2017-10-12T08:11:55.166Z,15.6
2017-10-12T08:13:04.338Z,15.64
2017-10-12T08:14:13.178Z,15.68
2017-10-12T08:15:22.011Z,15.69
2017-10-12T08:16:30.849Z,15.69
2017-10-12T08:17:39.682Z,15.75
2017-10-12T08:18:48.851Z,15.75
2017-10-12T08:19:57.687Z,15.75
2017-10-12T08:21:06.525Z,15.76
2017-10-12T08:22:15.357Z,15.69
2017-10-12T08:23:24.196Z,15.71
2017-10-12T08:24:33.026Z,15.71
2017-10-12T08:25:41.863Z,15.78
2017-10-12T08:26:50.706Z,15.84
2017-10-12T08:27:59.533Z,15.8
2017-10-12T08:29:08.373Z,15.9
2017-10-12T08:30:17.212Z,15.84
2017-10-12T08:31:26.041Z,15.9
2017-10-12T08:32:34.876Z,15.9
2017-10-12T08:33:43.712Z,15.92
2017-10-12T08:34:52.546Z,15.9
2017-10-12T08:36:01.376Z,15.89
2017-10-12T08:37:10.217Z,15.92
2017-10-12T08:38:19.047Z,15.92
2017-10-12T08:39:27.889Z,15.94
2017-10-12T08:40:37.059Z,16.01
2017-10-12T08:41:45.900Z,16.05
2017-10-12T08:42:54.736Z,16
2017-10-12T08:44:03.566Z,16.01
2017-10-12T08:45:12.397Z,16.05
2017-10-12T08:46:21.241Z,16.07
2017-10-12T08:47:30.082Z,16.15
2017-10-12T08:48:38.917Z,16.11
2017-10-12T08:49:47.751Z,16.15
2017-10-12T08:50:56.596Z,16.12
2017-10-12T08:52:05.433Z,16.21
2017-10-12T08:53:14.266Z,16.08
2017-10-12T08:54:23.099Z,16.23
2017-10-12T08:55:31.935Z,16.14
2017-10-12T08:56:40.768Z,16.12
2017-10-12T08:57:49.606Z,16.17
2017-10-12T08:58:58.444Z,16.14
2017-10-12T09:00:07.280Z,16.12
2017-10-12T09:01:16.453Z,16.2
2017-10-12T09:02:25.282Z,16.27
2017-10-12T09:03:34.117Z,16.34
2017-10-12T09:04:42.955Z,16.39
2017-10-12T09:05:51.789Z,16.45
2017-10-12T09:07:00.625Z,16.53
2017-10-12T09:08:09.459Z,16.57
2017-10-12T09:09:18.300Z,16.6
2017-10-12T09:10:27.136Z,16.57
2017-10-12T09:11:35.972Z,16.57
2017-10-12T09:12:44.814Z,16.58
2017-10-12T09:13:53.648Z,16.68
2017-10-12T09:15:02.485Z,16.58
2017-10-12T09:16:11.322Z,16.56
2017-10-12T09:17:20.161Z,16.63
2017-10-12T09:18:28.998Z,16.73
2017-10-12T09:19:37.833Z,16.68
2017-10-12T09:20:46.669Z,16.68
2017-10-12T09:21:55.507Z,16.64
2017-10-12T09:23:04.355Z,16.73
2017-10-12T09:24:13.194Z,16.73
2017-10-12T09:25:22.031Z,16.76
2017-10-12T09:26:30.876Z,16.68
2017-10-12T09:27:39.706Z,16.73
2017-10-12T09:28:48.545Z,16.79
2017-10-12T09:29:57.384Z,16.83
2017-10-12T09:31:06.215Z,16.86
2017-10-12T09:32:15.054Z,16.89
2017-10-12T09:33:23.890Z,16.98
2017-10-12T09:34:32.729Z,17
2017-10-12T09:35:41.561Z,16.97
2017-10-12T09:36:50.404Z,17.01
2017-10-12T09:37:59.234Z,17
2017-10-12T09:39:08.075Z,16.94
2017-10-12T09:40:16.910Z,16.98
2017-10-12T09:41:25.751Z,17.01
2017-10-12T09:42:34.586Z,16.98
2017-10-12T09:43:43.423Z,16.97
2017-10-12T09:44:52.259Z,16.98
2017-10-12T09:46:01.094Z,16.98
2017-10-12T09:47:10.270Z,17.04
2017-10-12T09:48:19.110Z,17.07
2017-10-12T09:49:27.946Z,17.12
2017-10-12T09:50:36.783Z,17.16
2017-10-12T09:51:45.616Z,17.19
2017-10-12T09:52:54.794Z,17.22
2017-10-12T09:54:03.633Z,17.26
2017-10-12T09:55:12.469Z,17.14
2017-10-12T09:56:21.301Z,17.21
2017-10-12T09:57:30.138Z,17.22
2017-10-12T09:58:38.975Z,17.22
2017-10-12T09:59:47.816Z,17.18
2017-10-12T10:00:56.660Z,17.21
2017-10-12T10:02:05.486Z,17.19
2017-10-12T10:03:14.323Z,17.22
2017-10-12T10:04:23.163Z,17.18
2017-10-12T10:05:32.333Z,17.16
2017-10-12T10:06:41.172Z,17.15
2017-10-12T10:07:50.006Z,17.08
2017-10-12T10:08:58.842Z,16.98
2017-10-12T10:10:07.675Z,16.96
2017-10-12T10:11:16.513Z,16.85
2017-10-12T10:12:25.349Z,16.83
2017-10-12T10:13:34.181Z,16.83
2017-10-12T10:14:43.021Z,16.78
2017-10-12T10:15:51.860Z,16.73
2017-10-12T10:17:00.693Z,16.68
2017-10-12T10:18:09.866Z,16.7
2017-10-12T10:19:18.706Z,16.73
2017-10-12T10:20:27.543Z,16.75
2017-10-12T10:21:36.381Z,16.68
2017-10-12T10:22:45.211Z,16.71
2017-10-12T10:23:54.048Z,16.76
2017-10-12T10:25:02.885Z,16.89
2017-10-12T10:26:11.721Z,16.98
2017-10-12T10:27:20.559Z,16.97
2017-10-12T10:28:29.399Z,16.97
2017-10-12T10:29:38.230Z,17.04
2017-10-12T10:30:47.066Z,16.94
2017-10-12T10:31:55.908Z,17.04
2017-10-12T10:33:04.744Z,17.08
2017-10-12T10:34:13.577Z,17.12
2017-10-12T10:35:22.419Z,17.19
2017-10-12T10:36:31.253Z,17.21
2017-10-12T10:37:40.092Z,17.18
2017-10-12T10:38:48.924Z,17.19
2017-10-12T10:39:57.762Z,17.04
2017-10-12T10:41:06.595Z,17.07
2017-10-12T10:42:15.435Z,16.98
2017-10-12T10:43:24.264Z,16.97
2017-10-12T10:44:33.102Z,16.96
2017-10-12T10:45:41.936Z,16.81
2017-10-12T10:46:50.777Z,16.81
2017-10-12T10:47:59.618Z,16.73
2017-10-12T10:49:08.451Z,16.78
2017-10-12T10:50:17.629Z,16.75
2017-10-12T10:51:26.460Z,16.63
2017-10-12T10:52:35.639Z,16.6
2017-10-12T10:53:44.478Z,16.53
2017-10-12T10:54:53.318Z,16.56
2017-10-12T10:56:02.154Z,16.5
2017-10-12T10:57:10.991Z,16.42
2017-10-12T10:58:19.827Z,16.33
2017-10-12T10:59:28.663Z,16.33
2017-10-12T11:00:37.507Z,16.33
2017-10-12T11:01:46.341Z,16.25
2017-10-12T11:02:55.172Z,16.33
2017-10-12T11:04:04.353Z,16.31
2017-10-12T11:05:13.186Z,16.27
2017-10-12T11:06:22.029Z,16.31
2017-10-12T11:07:31.203Z,16.34
2017-10-12T11:08:40.033Z,16.33
2017-10-12T11:09:48.869Z,16.31
2017-10-12T11:10:57.709Z,16.31
2017-10-12T11:12:06.540Z,16.35
2017-10-12T11:13:15.379Z,16.35
2017-10-12T11:14:24.219Z,16.33
2017-10-12T11:15:33.050Z,16.39
2017-10-12T11:16:41.886Z,16.45
2017-10-12T11:17:50.723Z,16.53
2017-10-12T11:18:59.559Z,16.57
2017-10-12T11:20:08.397Z,16.56
2017-10-12T11:21:17.239Z,16.53
2017-10-12T11:22:26.078Z,16.53
2017-10-12T11:23:34.914Z,16.5
2017-10-12T11:24:43.754Z,16.53
2017-10-12T11:25:52.584Z,16.53
2017-10-12T11:27:01.424Z,16.5
2017-10-12T11:28:10.262Z,16.52
2017-10-12T11:29:19.099Z,16.49
2017-10-12T11:30:27.933Z,16.56
2017-10-12T11:31:36.771Z,16.57
2017-10-12T11:32:45.613Z,16.52
2017-10-12T11:33:54.455Z,16.57
2017-10-12T11:35:03.633Z,16.57
2017-10-12T11:36:12.462Z,16.68
2017-10-12T11:37:21.304Z,16.73
2017-10-12T11:38:30.139Z,16.68
2017-10-12T11:39:38.979Z,16.57
2017-10-12T11:40:47.812Z,16.68
2017-10-12T11:41:56.652Z,16.68
2017-10-12T11:43:05.487Z,16.71
2017-10-12T11:44:14.656Z,16.78
2017-10-12T11:45:23.832Z,16.79
2017-10-12T11:46:32.667Z,16.78
2017-10-12T11:47:41.503Z,16.86
2017-10-12T11:48:50.340Z,16.96
2017-10-12T11:49:59.182Z,16.98
2017-10-12T11:51:08.354Z,17.08
2017-10-12T11:52:17.523Z,17.11
2017-10-12T11:53:26.699Z,17.07
2017-10-12T11:54:35.531Z,17.06
2017-10-12T11:55:44.371Z,16.93
2017-10-12T11:56:53.205Z,17
2017-10-12T11:58:02.044Z,16.96
2017-10-12T11:59:10.885Z,16.97
2017-10-12T12:00:19.718Z,16.94
2017-10-12T12:01:28.558Z,16.93
2017-10-12T12:02:37.393Z,16.88
2017-10-12T12:03:46.233Z,16.76
2017-10-12T12:04:55.067Z,16.79
2017-10-12T12:06:03.903Z,16.78
2017-10-12T12:07:12.743Z,16.81
2017-10-12T12:08:21.914Z,16.82
2017-10-12T12:09:30.751Z,16.85
2017-10-12T12:10:39.589Z,16.85
2017-10-12T12:11:48.428Z,16.82
2017-10-12T12:12:57.264Z,16.91
2017-10-12T12:14:06.100Z,16.89
2017-10-12T12:15:14.940Z,16.85
2017-10-12T12:16:24.135Z,16.86
2017-10-12T12:17:32.972Z,16.86
2017-10-12T12:18:41.813Z,16.88
2017-10-12T12:19:50.648Z,16.91
2017-10-12T12:20:59.482Z,16.89
2017-10-12T12:22:08.320Z,16.89
2017-10-12T12:23:17.160Z,16.91
2017-10-12T12:24:25.997Z,17.01
2017-10-12T12:25:34.835Z,16.94
2017-10-12T12:26:43.670Z,16.98
2017-10-12T12:27:52.506Z,16.96
2017-10-12T12:29:01.348Z,16.94
2017-10-12T12:30:10.188Z,16.88
2017-10-12T12:31:19.022Z,16.94
2017-10-12T12:32:27.864Z,16.88
2017-10-12T12:33:36.695Z,16.94
2017-10-12T12:34:45.534Z,16.91
2017-10-12T12:35:54.372Z,16.96
2017-10-12T12:37:03.212Z,17.08
2017-10-12T12:38:12.048Z,17.12
2017-10-12T12:39:20.883Z,17.19
2017-10-12T12:40:29.721Z,17.28
2017-10-12T12:41:38.558Z,17.18
2017-10-12T12:42:47.403Z,17.22
2017-10-12T12:43:56.234Z,17.21
2017-10-12T12:45:05.072Z,17.26
2017-10-12T12:46:13.909Z,17.21
2017-10-12T12:47:22.752Z,17.26
2017-10-12T12:48:31.583Z,17.26
2017-10-12T12:49:40.418Z,17.22
2017-10-12T12:50:49.262Z,17.12
2017-10-12T12:51:58.096Z,17.16
2017-10-12T12:53:06.938Z,17.14
2017-10-12T12:54:15.776Z,17.14
2017-10-12T12:55:24.950Z,17.15
2017-10-12T12:56:33.787Z,17.12
2017-10-12T12:57:42.627Z,17.14
2017-10-12T12:58:51.459Z,17.14
2017-10-12T13:00:00.295Z,17.14
2017-10-12T13:01:09.141Z,17.14
2017-10-12T13:02:18.305Z,17.07
2017-10-12T13:03:27.162Z,17.11
2017-10-12T13:04:35.984Z,17.06
2017-10-12T13:05:44.823Z,17.01
2017-10-12T13:06:53.655Z,16.98
2017-10-12T13:08:02.517Z,17
2017-10-12T13:09:11.353Z,16.98
2017-10-12T13:10:20.191Z,16.96
2017-10-12T13:11:29.040Z,16.86
2017-10-12T13:12:37.868Z,16.93
2017-10-12T13:13:46.700Z,16.98
2017-10-12T13:14:55.533Z,16.94
2017-10-12T13:16:04.371Z,16.94
2017-10-12T13:17:13.216Z,16.96
2017-10-12T13:18:22.047Z,17
2017-10-12T13:19:30.880Z,17
2017-10-12T13:20:39.718Z,16.88
2017-10-12T13:21:48.556Z,16.93
2017-10-12T13:22:57.391Z,16.98
2017-10-12T13:24:06.233Z,16.98
2017-10-12T13:25:15.069Z,17.07
2017-10-12T13:26:23.909Z,17.06
2017-10-12T13:27:32.744Z,17.01
2017-10-12T13:28:41.582Z,16.93
2017-10-12T13:29:50.424Z,16.98
2017-10-12T13:30:59.257Z,17
2017-10-12T13:32:08.095Z,16.96
2017-10-12T13:33:16.931Z,16.97
2017-10-12T13:34:25.767Z,16.98
2017-10-12T13:35:34.606Z,16.96
2017-10-12T13:36:43.442Z,16.97
2017-10-12T13:37:52.283Z,17
2017-10-12T13:39:01.117Z,16.96
2017-10-12T13:40:09.955Z,16.94
2017-10-12T13:41:18.782Z,16.83
2017-10-12T13:42:27.622Z,16.86
2017-10-12T13:43:36.461Z,16.85
2017-10-12T13:44:45.289Z,16.82
2017-10-12T13:45:54.131Z,16.86
2017-10-12T13:47:02.970Z,16.86
2017-10-12T13:48:11.807Z,16.81
2017-10-12T13:49:20.976Z,16.89
2017-10-12T13:50:29.818Z,16.85
2017-10-12T13:51:38.651Z,16.81
2017-10-12T13:52:47.487Z,16.85
2017-10-12T13:53:56.322Z,16.81
2017-10-12T13:55:05.495Z,16.79
2017-10-12T13:56:14.335Z,16.85
2017-10-12T13:57:23.174Z,16.88
2017-10-12T13:58:32.007Z,16.88
2017-10-12T13:59:40.850Z,16.93
2017-10-12T14:00:49.686Z,16.86
2017-10-12T14:01:58.522Z,16.88
2017-10-12T14:03:07.361Z,16.96
2017-10-12T14:04:16.203Z,16.86
2017-10-12T14:05:25.038Z,16.89
2017-10-12T14:06:33.877Z,16.98
2017-10-12T14:07:42.716Z,16.91
2017-10-12T14:08:51.554Z,16.91
2017-10-12T14:10:00.387Z,16.91
2017-10-12T14:11:09.234Z,16.96
2017-10-12T14:12:18.407Z,16.97
2017-10-12T14:13:27.243Z,16.97
2017-10-12T14:14:36.421Z,17.01
2017-10-12T14:15:45.256Z,17
2017-10-12T14:16:54.432Z,16.96
2017-10-12T14:18:03.272Z,16.91
2017-10-12T14:19:12.103Z,17.01
2017-10-12T14:20:20.943Z,16.97
2017-10-12T14:21:30.452Z,16.98
2017-10-12T14:22:39.288Z,16.97
2017-10-12T14:23:48.122Z,16.93
2017-10-12T14:24:56.961Z,16.98
2017-10-12T14:26:05.797Z,16.96
2017-10-12T14:27:14.633Z,16.94
2017-10-12T14:28:23.470Z,16.88
2017-10-12T14:29:32.311Z,16.89
2017-10-12T14:30:41.148Z,16.88
2017-10-12T14:31:49.984Z,16.82
2017-10-12T14:32:58.820Z,16.85
2017-10-12T14:34:07.661Z,16.86
2017-10-12T14:35:16.498Z,16.85
2017-10-12T14:36:25.336Z,16.81
2017-10-12T14:37:34.172Z,16.85
2017-10-12T14:38:43.006Z,16.86
2017-10-12T14:39:51.845Z,16.86
2017-10-12T14:41:00.688Z,16.86
2017-10-12T14:42:09.521Z,16.85
2017-10-12T14:43:18.352Z,16.83
2017-10-12T14:44:27.191Z,16.83
2017-10-12T14:45:36.030Z,16.86
2017-10-12T14:46:44.874Z,16.81
2017-10-12T14:47:53.712Z,16.81
2017-10-12T14:49:02.551Z,16.82
2017-10-12T14:50:11.723Z,16.75